Terminal Aerodrome Forecast
Issued by NWS Topeka, KS

Home | Current Version | Previous Version | Graphics & Text | Print | Product List | Glossary On
Versions: 1 2 3 4 5 6 7 8 9 10 11 12 13 14
779
FTUS43 KTOP 170520
TAFTOP
TAF
KTOP 170520Z 1706/1806 08005KT P6SM FEW250
     FM171200 10008KT P6SM SCT200
     FM171600 11012G21KT P6SM BKN035
     FM172200 13013G23KT P6SM SCT035=

USA.gov is the U.S. government's official web portal to all federal, state and local government web resources and services.